Campo, California
Current Conditions -  °F | °C
As of 4:40 AM on Friday 28 Nov 2014 (Local Time) from MMTJ Reporting Station
Clear Clear  
Wind Chill: 61°   Ceiling: Unl
Heat Index: 61°   Visibility: 6mi
Dew Point: 18°   Wind: 5mph
Humidity: 19%   Direction: 120°ESE
Pressure: 30"   Gusts: NA
Location:  32.61°N, 116.47°W
Report Text: MMTJ 281240Z 12004KT 6SM SKC 16/M08 A3000
Loading
Personal Weather Stations






























Interactive Weather Map New forecast layout! Learn more

10-Day Weather Forecast

Advertisements
Track Severe Weather on mobile